sensor_id;sensor_type;location;lat;lon;timestamp;P1;durP1;ratioP1;P2;durP2;ratioP2
30378;SDS011;17168;49.164;9.060;2023-08-01T00:02:15;5.47;;;2.13;;
30378;SDS011;17168;49.164;9.060;2023-08-01T00:04:48;7.15;;;2.80;;
30378;SDS011;17168;49.164;9.060;2023-08-01T00:07:20;4.43;;;2.60;;
30378;SDS011;17168;49.164;9.060;2023-08-01T00:09:52;5.40;;;2.63;;
30378;SDS011;17168;49.164;9.060;2023-08-01T00:12:25;4.75;;;2.38;;
30378;SDS011;17168;49.164;9.060;2023-08-01T00:14:57;5.35;;;2.75;;
30378;SDS011;17168;49.164;9.060;2023-08-01T00:17:32;5.10;;;2.40;;
30378;SDS011;17168;49.164;9.060;2023-08-01T00:20:05;3.80;;;2.08;;
30378;SDS011;17168;49.164;9.060;2023-08-01T00:22:38;5.03;;;3.00;;
30378;SDS011;17168;49.164;9.060;2023-08-01T00:25:10;4.68;;;2.78;;
30378;SDS011;17168;49.164;9.060;2023-08-01T00:27:42;6.38;;;2.88;;
30378;SDS011;17168;49.164;9.060;2023-08-01T00:30:15;6.32;;;2.47;;
30378;SDS011;17168;49.164;9.060;2023-08-01T00:32:50;5.93;;;3.33;;
30378;SDS011;17168;49.164;9.060;2023-08-01T00:35:22;5.20;;;2.78;;
30378;SDS011;17168;49.164;9.060;2023-08-01T00:37:55;5.75;;;2.60;;
30378;SDS011;17168;49.164;9.060;2023-08-01T00:40:29;4.72;;;2.30;;
30378;SDS011;17168;49.164;9.060;2023-08-01T00:43:01;6.13;;;2.40;;
30378;SDS011;17168;49.164;9.060;2023-08-01T00:45:34;5.53;;;1.92;;
30378;SDS011;17168;49.164;9.060;2023-08-01T00:48:09;5.70;;;2.85;;
30378;SDS011;17168;49.164;9.060;2023-08-01T00:50:42;6.25;;;2.63;;
30378;SDS011;17168;49.164;9.060;2023-08-01T00:53:14;4.75;;;1.95;;
30378;SDS011;17168;49.164;9.060;2023-08-01T00:55:46;7.38;;;2.95;;
30378;SDS011;17168;49.164;9.060;2023-08-01T00:58:19;5.05;;;2.72;;
30378;SDS011;17168;49.164;9.060;2023-08-01T01:00:51;4.10;;;2.65;;
30378;SDS011;17168;49.164;9.060;2023-08-01T01:03:26;6.18;;;3.03;;
30378;SDS011;17168;49.164;9.060;2023-08-01T01:06:01;5.88;;;2.42;;
30378;SDS011;17168;49.164;9.060;2023-08-01T01:08:37;6.32;;;2.53;;
30378;SDS011;17168;49.164;9.060;2023-08-01T01:11:10;5.72;;;2.42;;
30378;SDS011;17168;49.164;9.060;2023-08-01T01:13:42;5.60;;;2.42;;
30378;SDS011;17168;49.164;9.060;2023-08-01T01:16:14;5.65;;;2.90;;
30378;SDS011;17168;49.164;9.060;2023-08-01T01:18:49;3.97;;;2.47;;
30378;SDS011;17168;49.164;9.060;2023-08-01T01:21:24;4.82;;;2.50;;
30378;SDS011;17168;49.164;9.060;2023-08-01T01:23:56;4.50;;;2.58;;
30378;SDS011;17168;49.164;9.060;2023-08-01T01:26:30;5.95;;;2.50;;
30378;SDS011;17168;49.164;9.060;2023-08-01T01:29:04;5.10;;;2.35;;
30378;SDS011;17168;49.164;9.060;2023-08-01T01:31:37;4.43;;;2.10;;
30378;SDS011;17168;49.164;9.060;2023-08-01T01:34:10;8.88;;;1.88;;
30378;SDS011;17168;49.164;9.060;2023-08-01T01:36:45;4.38;;;1.92;;
30378;SDS011;17168;49.164;9.060;2023-08-01T01:39:17;5.03;;;2.08;;
30378;SDS011;17168;49.164;9.060;2023-08-01T01:41:50;4.57;;;3.55;;
30378;SDS011;17168;49.164;9.060;2023-08-01T01:44:22;4.95;;;2.47;;
30378;SDS011;17168;49.164;9.060;2023-08-01T01:46:54;4.43;;;2.20;;
30378;SDS011;17168;49.164;9.060;2023-08-01T01:49:26;4.95;;;2.38;;
30378;SDS011;17168;49.164;9.060;2023-08-01T01:52:01;5.68;;;2.40;;
30378;SDS011;17168;49.164;9.060;2023-08-01T01:54:35;7.72;;;2.63;;
30378;SDS011;17168;49.164;9.060;2023-08-01T01:57:07;4.97;;;2.35;;
30378;SDS011;17168;49.164;9.060;2023-08-01T01:59:40;5.32;;;2.45;;
30378;SDS011;17168;49.164;9.060;2023-08-01T02:02:12;5.43;;;2.20;;
30378;SDS011;17168;49.164;9.060;2023-08-01T02:04:45;4.97;;;2.05;;
30378;SDS011;17168;49.164;9.060;2023-08-01T02:07:21;4.00;;;2.13;;
30378;SDS011;17168;49.164;9.060;2023-08-01T02:09:53;4.25;;;2.00;;
30378;SDS011;17168;49.164;9.060;2023-08-01T02:12:25;9.55;;;2.85;;
30378;SDS011;17168;49.164;9.060;2023-08-01T02:14:58;5.57;;;2.10;;
30378;SDS011;17168;49.164;9.060;2023-08-01T02:17:30;4.32;;;2.30;;
30378;SDS011;17168;49.164;9.060;2023-08-01T02:20:03;5.72;;;2.25;;
30378;SDS011;17168;49.164;9.060;2023-08-01T02:22:38;5.20;;;2.92;;
30378;SDS011;17168;49.164;9.060;2023-08-01T02:25:10;5.43;;;2.72;;
30378;SDS011;17168;49.164;9.060;2023-08-01T02:27:43;4.57;;;2.75;;
30378;SDS011;17168;49.164;9.060;2023-08-01T02:30:15;5.25;;;2.63;;
30378;SDS011;17168;49.164;9.060;2023-08-01T02:32:48;6.05;;;2.85;;
30378;SDS011;17168;49.164;9.060;2023-08-01T02:35:21;6.03;;;2.50;;
30378;SDS011;17168;49.164;9.060;2023-08-01T02:37:55;5.88;;;2.50;;
30378;SDS011;17168;49.164;9.060;2023-08-01T02:40:28;5.60;;;2.10;;
30378;SDS011;17168;49.164;9.060;2023-08-01T02:43:00;7.25;;;1.27;;
30378;SDS011;17168;49.164;9.060;2023-08-01T02:45:32;7.80;;;1.98;;
30378;SDS011;17168;49.164;9.060;2023-08-01T02:48:04;3.47;;;1.65;;
30378;SDS011;17168;49.164;9.060;2023-08-01T02:50:37;6.40;;;2.65;;
30378;SDS011;17168;49.164;9.060;2023-08-01T02:53:13;5.43;;;2.20;;
30378;SDS011;17168;49.164;9.060;2023-08-01T02:55:47;4.15;;;1.85;;
30378;SDS011;17168;49.164;9.060;2023-08-01T02:58:20;5.95;;;1.88;;
30378;SDS011;17168;49.164;9.060;2023-08-01T03:00:52;5.13;;;1.92;;
30378;SDS011;17168;49.164;9.060;2023-08-01T03:03:24;3.95;;;1.58;;
30378;SDS011;17168;49.164;9.060;2023-08-01T03:05:57;3.80;;;1.55;;
30378;SDS011;17168;49.164;9.060;2023-08-01T03:08:31;5.57;;;2.28;;
30378;SDS011;17168;49.164;9.060;2023-08-01T03:11:04;5.45;;;2.00;;
30378;SDS011;17168;49.164;9.060;2023-08-01T03:13:36;5.18;;;2.05;;
30378;SDS011;17168;49.164;9.060;2023-08-01T03:16:08;5.30;;;2.20;;
30378;SDS011;17168;49.164;9.060;2023-08-01T03:18:41;6.53;;;2.67;;
30378;SDS011;17168;49.164;9.060;2023-08-01T03:21:14;6.55;;;2.65;;
30378;SDS011;17168;49.164;9.060;2023-08-01T03:23:49;5.22;;;2.50;;
30378;SDS011;17168;49.164;9.060;2023-08-01T03:26:21;3.85;;;2.15;;
30378;SDS011;17168;49.164;9.060;2023-08-01T03:28:54;5.63;;;2.03;;
30378;SDS011;17168;49.164;9.060;2023-08-01T03:31:27;4.82;;;2.05;;
30378;SDS011;17168;49.164;9.060;2023-08-01T03:33:59;5.28;;;2.75;;
30378;SDS011;17168;49.164;9.060;2023-08-01T03:36:31;4.50;;;2.47;;
30378;SDS011;17168;49.164;9.060;2023-08-01T03:39:07;4.28;;;2.42;;
30378;SDS011;17168;49.164;9.060;2023-08-01T03:41:41;5.63;;;2.40;;
30378;SDS011;17168;49.164;9.060;2023-08-01T03:44:13;5.72;;;2.35;;
30378;SDS011;17168;49.164;9.060;2023-08-01T03:46:47;5.43;;;2.63;;
30378;SDS011;17168;49.164;9.060;2023-08-01T03:49:19;5.78;;;2.03;;
30378;SDS011;17168;49.164;9.060;2023-08-01T03:51:52;5.55;;;2.63;;
30378;SDS011;17168;49.164;9.060;2023-08-01T03:54:27;6.43;;;2.75;;
30378;SDS011;17168;49.164;9.060;2023-08-01T03:56:59;4.43;;;2.20;;
30378;SDS011;17168;49.164;9.060;2023-08-01T03:59:34;4.82;;;2.40;;
30378;SDS011;17168;49.164;9.060;2023-08-01T04:02:07;4.85;;;2.20;;
30378;SDS011;17168;49.164;9.060;2023-08-01T04:04:40;6.18;;;2.40;;
30378;SDS011;17168;49.164;9.060;2023-08-01T04:07:12;10.13;;;2.70;;
30378;SDS011;17168;49.164;9.060;2023-08-01T04:09:47;5.57;;;2.60;;
30378;SDS011;17168;49.164;9.060;2023-08-01T04:12:20;5.00;;;2.42;;
30378;SDS011;17168;49.164;9.060;2023-08-01T04:14:52;5.78;;;2.47;;
30378;SDS011;17168;49.164;9.060;2023-08-01T04:17:24;5.50;;;2.88;;
30378;SDS011;17168;49.164;9.060;2023-08-01T04:19:56;6.35;;;2.60;;
30378;SDS011;17168;49.164;9.060;2023-08-01T04:22:28;4.85;;;2.70;;
30378;SDS011;17168;49.164;9.060;2023-08-01T04:25:03;6.45;;;2.88;;
30378;SDS011;17168;49.164;9.060;2023-08-01T04:27:36;5.68;;;2.88;;
30378;SDS011;17168;49.164;9.060;2023-08-01T04:30:09;6.03;;;2.45;;
30378;SDS011;17168;49.164;9.060;2023-08-01T04:32:42;6.72;;;3.00;;
30378;SDS011;17168;49.164;9.060;2023-08-01T04:35:14;6.20;;;2.83;;
30378;SDS011;17168;49.164;9.060;2023-08-01T04:37:46;5.88;;;2.10;;
30378;SDS011;17168;49.164;9.060;2023-08-01T04:40:21;6.65;;;2.88;;
30378;SDS011;17168;49.164;9.060;2023-08-01T04:42:53;5.10;;;2.70;;
30378;SDS011;17168;49.164;9.060;2023-08-01T04:45:26;6.90;;;2.85;;
30378;SDS011;17168;49.164;9.060;2023-08-01T04:47:58;4.80;;;2.78;;
30378;SDS011;17168;49.164;9.060;2023-08-01T04:50:30;5.50;;;3.15;;
30378;SDS011;17168;49.164;9.060;2023-08-01T04:53:02;7.75;;;3.72;;
30378;SDS011;17168;49.164;9.060;2023-08-01T04:55:38;6.05;;;3.10;;
30378;SDS011;17168;49.164;9.060;2023-08-01T04:58:11;6.78;;;3.20;;
30378;SDS011;17168;49.164;9.060;2023-08-01T05:00:43;6.55;;;3.47;;
30378;SDS011;17168;49.164;9.060;2023-08-01T05:03:16;6.70;;;3.40;;
30378;SDS011;17168;49.164;9.060;2023-08-01T05:05:48;5.88;;;2.38;;
30378;SDS011;17168;49.164;9.060;2023-08-01T05:08:20;6.50;;;2.78;;
30378;SDS011;17168;49.164;9.060;2023-08-01T05:10:55;6.15;;;2.70;;
30378;SDS011;17168;49.164;9.060;2023-08-01T05:13:27;4.53;;;2.50;;
30378;SDS011;17168;49.164;9.060;2023-08-01T05:15:59;6.32;;;3.13;;
30378;SDS011;17168;49.164;9.060;2023-08-01T05:18:32;6.07;;;2.80;;
30378;SDS011;17168;49.164;9.060;2023-08-01T05:21:05;5.30;;;2.40;;
30378;SDS011;17168;49.164;9.060;2023-08-01T05:23:40;5.88;;;2.35;;
30378;SDS011;17168;49.164;9.060;2023-08-01T05:26:15;6.00;;;2.42;;
30378;SDS011;17168;49.164;9.060;2023-08-01T05:28:47;3.80;;;2.42;;
30378;SDS011;17168;49.164;9.060;2023-08-01T05:31:22;5.13;;;1.95;;
30378;SDS011;17168;49.164;9.060;2023-08-01T05:33:55;5.60;;;2.40;;
30378;SDS011;17168;49.164;9.060;2023-08-01T05:36:27;5.85;;;2.28;;
30378;SDS011;17168;49.164;9.060;2023-08-01T05:39:02;4.35;;;2.05;;
30378;SDS011;17168;49.164;9.060;2023-08-01T05:41:37;4.85;;;1.70;;
30378;SDS011;17168;49.164;9.060;2023-08-01T05:44:10;3.78;;;2.00;;
30378;SDS011;17168;49.164;9.060;2023-08-01T05:46:42;5.90;;;1.98;;
30378;SDS011;17168;49.164;9.060;2023-08-01T05:49:14;5.40;;;2.28;;
30378;SDS011;17168;49.164;9.060;2023-08-01T05:51:49;5.40;;;2.17;;
30378;SDS011;17168;49.164;9.060;2023-08-01T05:54:25;5.50;;;2.47;;
30378;SDS011;17168;49.164;9.060;2023-08-01T05:57:10;6.13;;;1.95;;
30378;SDS011;17168;49.164;9.060;2023-08-01T05:59:50;4.55;;;2.08;;
30378;SDS011;17168;49.164;9.060;2023-08-01T06:02:22;6.82;;;2.80;;
30378;SDS011;17168;49.164;9.060;2023-08-01T06:04:55;6.57;;;2.33;;
30378;SDS011;17168;49.164;9.060;2023-08-01T06:07:27;6.85;;;3.13;;
30378;SDS011;17168;49.164;9.060;2023-08-01T06:09:59;5.10;;;2.15;;
30378;SDS011;17168;49.164;9.060;2023-08-01T06:12:34;4.80;;;2.30;;
30378;SDS011;17168;49.164;9.060;2023-08-01T06:15:06;6.32;;;3.00;;
30378;SDS011;17168;49.164;9.060;2023-08-01T06:17:39;5.95;;;1.90;;
30378;SDS011;17168;49.164;9.060;2023-08-01T06:20:11;5.45;;;2.20;;
30378;SDS011;17168;49.164;9.060;2023-08-01T06:22:46;6.53;;;3.08;;
30378;SDS011;17168;49.164;9.060;2023-08-01T06:25:18;5.85;;;2.38;;
30378;SDS011;17168;49.164;9.060;2023-08-01T06:27:53;11.88;;;3.58;;
30378;SDS011;17168;49.164;9.060;2023-08-01T06:30:25;6.43;;;2.75;;
30378;SDS011;17168;49.164;9.060;2023-08-01T06:32:57;8.18;;;3.33;;
30378;SDS011;17168;49.164;9.060;2023-08-01T06:35:30;10.48;;;4.05;;
30378;SDS011;17168;49.164;9.060;2023-08-01T06:38:02;9.60;;;3.80;;
30378;SDS011;17168;49.164;9.060;2023-08-01T06:40:34;6.38;;;3.28;;
30378;SDS011;17168;49.164;9.060;2023-08-01T06:43:09;8.88;;;3.38;;
30378;SDS011;17168;49.164;9.060;2023-08-01T06:45:41;8.65;;;4.20;;
30378;SDS011;17168;49.164;9.060;2023-08-01T06:48:13;10.18;;;3.70;;
30378;SDS011;17168;49.164;9.060;2023-08-01T06:50:45;8.77;;;3.88;;
30378;SDS011;17168;49.164;9.060;2023-08-01T06:53:18;7.18;;;3.15;;
30378;SDS011;17168;49.164;9.060;2023-08-01T06:55:51;8.93;;;3.63;;
30378;SDS011;17168;49.164;9.060;2023-08-01T06:58:25;6.75;;;3.78;;
30378;SDS011;17168;49.164;9.060;2023-08-01T07:00:57;7.30;;;3.08;;
30378;SDS011;17168;49.164;9.060;2023-08-01T07:03:30;12.00;;;3.53;;
30378;SDS011;17168;49.164;9.060;2023-08-01T07:06:02;9.20;;;3.60;;
30378;SDS011;17168;49.164;9.060;2023-08-01T07:08:38;11.80;;;3.10;;
30378;SDS011;17168;49.164;9.060;2023-08-01T07:11:10;7.85;;;2.75;;
30378;SDS011;17168;49.164;9.060;2023-08-01T07:13:45;7.93;;;3.55;;
30378;SDS011;17168;49.164;9.060;2023-08-01T07:16:17;5.90;;;2.92;;
30378;SDS011;17168;49.164;9.060;2023-08-01T07:18:50;6.90;;;3.40;;
30378;SDS011;17168;49.164;9.060;2023-08-01T07:21:22;6.22;;;2.75;;
30378;SDS011;17168;49.164;9.060;2023-08-01T07:23:54;5.47;;;2.45;;
30378;SDS011;17168;49.164;9.060;2023-08-01T07:26:26;8.77;;;3.08;;
30378;SDS011;17168;49.164;9.060;2023-08-01T07:29:02;6.68;;;3.38;;
30378;SDS011;17168;49.164;9.060;2023-08-01T07:31:34;7.13;;;3.00;;
30378;SDS011;17168;49.164;9.060;2023-08-01T07:34:08;6.85;;;2.33;;
30378;SDS011;17168;49.164;9.060;2023-08-01T07:36:40;7.07;;;3.10;;
30378;SDS011;17168;49.164;9.060;2023-08-01T07:39:13;8.48;;;3.15;;
30378;SDS011;17168;49.164;9.060;2023-08-01T07:41:47;8.93;;;2.90;;
30378;SDS011;17168;49.164;9.060;2023-08-01T07:44:22;7.65;;;3.28;;
30378;SDS011;17168;49.164;9.060;2023-08-01T07:46:54;6.60;;;3.03;;
30378;SDS011;17168;49.164;9.060;2023-08-01T07:49:28;9.98;;;3.72;;
30378;SDS011;17168;49.164;9.060;2023-08-01T07:52:00;6.75;;;3.20;;
30378;SDS011;17168;49.164;9.060;2023-08-01T07:54:32;5.93;;;2.33;;
30378;SDS011;17168;49.164;9.060;2023-08-01T07:57:05;6.15;;;2.80;;
30378;SDS011;17168;49.164;9.060;2023-08-01T07:59:40;6.70;;;2.58;;
30378;SDS011;17168;49.164;9.060;2023-08-01T08:02:12;5.05;;;2.17;;
30378;SDS011;17168;49.164;9.060;2023-08-01T08:04:44;6.75;;;2.85;;
30378;SDS011;17168;49.164;9.060;2023-08-01T08:07:17;5.75;;;1.67;;
30378;SDS011;17168;49.164;9.060;2023-08-01T08:09:49;5.80;;;2.38;;
30378;SDS011;17168;49.164;9.060;2023-08-01T08:12:23;7.03;;;2.70;;
30378;SDS011;17168;49.164;9.060;2023-08-01T08:14:57;5.70;;;2.13;;
30378;SDS011;17168;49.164;9.060;2023-08-01T08:17:29;6.30;;;1.85;;
30378;SDS011;17168;49.164;9.060;2023-08-01T08:20:02;5.22;;;1.85;;
30378;SDS011;17168;49.164;9.060;2023-08-01T08:22:35;5.22;;;2.15;;
30378;SDS011;17168;49.164;9.060;2023-08-01T08:25:07;6.35;;;1.83;;
30378;SDS011;17168;49.164;9.060;2023-08-01T08:27:39;4.18;;;1.60;;
30378;SDS011;17168;49.164;9.060;2023-08-01T08:30:14;3.92;;;1.33;;
30378;SDS011;17168;49.164;9.060;2023-08-01T08:32:46;3.92;;;1.23;;
30378;SDS011;17168;49.164;9.060;2023-08-01T08:35:19;1.95;;;0.75;;
30378;SDS011;17168;49.164;9.060;2023-08-01T08:37:51;1.25;;;0.45;;
30378;SDS011;17168;49.164;9.060;2023-08-01T08:40:23;1.80;;;0.65;;
30378;SDS011;17168;49.164;9.060;2023-08-01T08:42:55;3.42;;;0.77;;
30378;SDS011;17168;49.164;9.060;2023-08-01T08:45:34;1.80;;;0.38;;
30378;SDS011;17168;49.164;9.060;2023-08-01T08:48:08;2.08;;;0.60;;
30378;SDS011;17168;49.164;9.060;2023-08-01T08:50:43;1.50;;;1.20;;
30378;SDS011;17168;49.164;9.060;2023-08-01T08:53:17;1.80;;;0.50;;
30378;SDS011;17168;49.164;9.060;2023-08-01T08:55:50;2.85;;;0.90;;
30378;SDS011;17168;49.164;9.060;2023-08-01T08:58:22;6.80;;;0.50;;
30378;SDS011;17168;49.164;9.060;2023-08-01T09:00:57;1.40;;;0.32;;
30378;SDS011;17168;49.164;9.060;2023-08-01T09:03:32;1.02;;;0.30;;
30378;SDS011;17168;49.164;9.060;2023-08-01T09:06:07;1.10;;;0.40;;
30378;SDS011;17168;49.164;9.060;2023-08-01T09:08:46;1.23;;;0.35;;
30378;SDS011;17168;49.164;9.060;2023-08-01T09:11:23;0.88;;;0.30;;
30378;SDS011;17168;49.164;9.060;2023-08-01T09:13:56;1.42;;;0.40;;
30378;SDS011;17168;49.164;9.060;2023-08-01T09:16:32;1.10;;;0.30;;
30378;SDS011;17168;49.164;9.060;2023-08-01T09:19:05;1.58;;;0.30;;
30378;SDS011;17168;49.164;9.060;2023-08-01T09:21:38;1.92;;;0.57;;
30378;SDS011;17168;49.164;9.060;2023-08-01T09:24:11;0.90;;;0.45;;
30378;SDS011;17168;49.164;9.060;2023-08-01T09:26:45;1.35;;;0.13;;
30378;SDS011;17168;49.164;9.060;2023-08-01T09:29:19;1.10;;;0.30;;
30378;SDS011;17168;49.164;9.060;2023-08-01T09:31:54;2.08;;;0.43;;
30378;SDS011;17168;49.164;9.060;2023-08-01T09:34:27;1.65;;;0.57;;
30378;SDS011;17168;49.164;9.060;2023-08-01T09:36:59;1.85;;;0.43;;
30378;SDS011;17168;49.164;9.060;2023-08-01T09:39:32;1.42;;;0.40;;
30378;SDS011;17168;49.164;9.060;2023-08-01T09:42:05;1.65;;;0.45;;
30378;SDS011;17168;49.164;9.060;2023-08-01T09:44:38;2.10;;;0.50;;
30378;SDS011;17168;49.164;9.060;2023-08-01T09:47:18;1.70;;;0.57;;
30378;SDS011;17168;49.164;9.060;2023-08-01T09:49:52;1.35;;;0.52;;
30378;SDS011;17168;49.164;9.060;2023-08-01T09:52:29;1.80;;;0.20;;
30378;SDS011;17168;49.164;9.060;2023-08-01T09:55:01;0.55;;;0.17;;
30378;SDS011;17168;49.164;9.060;2023-08-01T09:57:34;2.53;;;0.80;;
30378;SDS011;17168;49.164;9.060;2023-08-01T10:00:09;1.70;;;0.32;;
30378;SDS011;17168;49.164;9.060;2023-08-01T10:02:45;1.10;;;0.50;;
30378;SDS011;17168;49.164;9.060;2023-08-01T10:05:18;0.65;;;0.30;;
30378;SDS011;17168;49.164;9.060;2023-08-01T10:07:51;2.15;;;0.60;;
30378;SDS011;17168;49.164;9.060;2023-08-01T10:10:27;0.55;;;0.32;;
30378;SDS011;17168;49.164;9.060;2023-08-01T10:13:00;1.27;;;1.00;;
30378;SDS011;17168;49.164;9.060;2023-08-01T10:15:33;0.90;;;0.32;;
30378;SDS011;17168;49.164;9.060;2023-08-01T10:18:08;0.52;;;0.20;;
30378;SDS011;17168;49.164;9.060;2023-08-01T10:20:41;1.23;;;0.52;;
30378;SDS011;17168;49.164;9.060;2023-08-01T10:23:14;1.00;;;0.57;;
30378;SDS011;17168;49.164;9.060;2023-08-01T10:25:47;1.73;;;0.90;;
30378;SDS011;17168;49.164;9.060;2023-08-01T10:28:20;0.63;;;0.15;;
30378;SDS011;17168;49.164;9.060;2023-08-01T10:31:06;1.17;;;0.30;;
30378;SDS011;17168;49.164;9.060;2023-08-01T10:33:45;1.10;;;0.57;;
30378;SDS011;17168;49.164;9.060;2023-08-01T10:36:19;1.25;;;0.60;;
30378;SDS011;17168;49.164;9.060;2023-08-01T10:38:57;0.70;;;0.20;;
30378;SDS011;17168;49.164;9.060;2023-08-01T10:41:30;0.88;;;0.47;;
30378;SDS011;17168;49.164;9.060;2023-08-01T10:44:04;0.82;;;0.40;;
30378;SDS011;17168;49.164;9.060;2023-08-01T10:46:47;0.73;;;0.13;;
30378;SDS011;17168;49.164;9.060;2023-08-01T10:49:35;0.75;;;0.50;;
30378;SDS011;17168;49.164;9.060;2023-08-01T10:52:15;0.82;;;0.40;;
30378;SDS011;17168;49.164;9.060;2023-08-01T10:54:55;0.93;;;0.38;;
30378;SDS011;17168;49.164;9.060;2023-08-01T10:57:29;1.00;;;0.38;;
30378;SDS011;17168;49.164;9.060;2023-08-01T11:00:03;0.90;;;0.43;;
30378;SDS011;17168;49.164;9.060;2023-08-01T11:02:41;2.05;;;0.73;;
30378;SDS011;17168;49.164;9.060;2023-08-01T11:05:17;0.50;;;0.38;;
30378;SDS011;17168;49.164;9.060;2023-08-01T11:07:53;0.85;;;0.60;;
30378;SDS011;17168;49.164;9.060;2023-08-01T11:10:26;1.50;;;0.25;;
30378;SDS011;17168;49.164;9.060;2023-08-01T11:13:01;2.17;;;0.88;;
30378;SDS011;17168;49.164;9.060;2023-08-01T11:15:36;1.65;;;0.35;;
30378;SDS011;17168;49.164;9.060;2023-08-01T11:18:09;4.38;;;0.68;;
30378;SDS011;17168;49.164;9.060;2023-08-01T11:20:44;2.95;;;0.73;;
30378;SDS011;17168;49.164;9.060;2023-08-01T11:23:16;2.58;;;0.90;;
30378;SDS011;17168;49.164;9.060;2023-08-01T11:26:01;1.67;;;0.75;;
30378;SDS011;17168;49.164;9.060;2023-08-01T11:28:39;2.08;;;0.88;;
30378;SDS011;17168;49.164;9.060;2023-08-01T11:31:11;2.15;;;1.20;;
30378;SDS011;17168;49.164;9.060;2023-08-01T11:33:54;1.67;;;0.95;;
30378;SDS011;17168;49.164;9.060;2023-08-01T11:36:30;2.42;;;0.88;;
30378;SDS011;17168;49.164;9.060;2023-08-01T11:39:02;1.95;;;1.38;;
30378;SDS011;17168;49.164;9.060;2023-08-01T11:41:35;1.65;;;1.05;;
30378;SDS011;17168;49.164;9.060;2023-08-01T11:44:07;1.52;;;0.57;;
30378;SDS011;17168;49.164;9.060;2023-08-01T11:46:42;1.50;;;0.85;;
30378;SDS011;17168;49.164;9.060;2023-08-01T11:49:16;1.42;;;0.52;;
30378;SDS011;17168;49.164;9.060;2023-08-01T11:51:51;1.08;;;0.20;;
30378;SDS011;17168;49.164;9.060;2023-08-01T11:54:24;0.65;;;0.30;;
30378;SDS011;17168;49.164;9.060;2023-08-01T11:56:59;3.28;;;0.43;;
30378;SDS011;17168;49.164;9.060;2023-08-01T11:59:35;1.08;;;0.55;;
30378;SDS011;17168;49.164;9.060;2023-08-01T12:02:20;1.02;;;0.55;;
30378;SDS011;17168;49.164;9.060;2023-08-01T12:04:54;1.08;;;0.52;;
30378;SDS011;17168;49.164;9.060;2023-08-01T12:07:29;1.88;;;0.32;;
30378;SDS011;17168;49.164;9.060;2023-08-01T12:10:01;1.13;;;0.50;;
30378;SDS011;17168;49.164;9.060;2023-08-01T12:12:42;0.28;;;0.05;;
30378;SDS011;17168;49.164;9.060;2023-08-01T12:15:15;1.08;;;0.30;;
30378;SDS011;17168;49.164;9.060;2023-08-01T12:17:48;1.02;;;0.50;;
30378;SDS011;17168;49.164;9.060;2023-08-01T12:20:20;1.00;;;0.38;;
30378;SDS011;17168;49.164;9.060;2023-08-01T12:22:55;2.28;;;0.22;;
30378;SDS011;17168;49.164;9.060;2023-08-01T12:25:27;0.88;;;0.32;;
30378;SDS011;17168;49.164;9.060;2023-08-01T12:28:00;0.63;;;0.22;;
30378;SDS011;17168;49.164;9.060;2023-08-01T12:30:32;1.15;;;0.30;;
30378;SDS011;17168;49.164;9.060;2023-08-01T12:33:04;0.52;;;0.13;;
30378;SDS011;17168;49.164;9.060;2023-08-01T12:35:40;2.70;;;0.43;;
30378;SDS011;17168;49.164;9.060;2023-08-01T12:38:15;0.82;;;0.40;;
30378;SDS011;17168;49.164;9.060;2023-08-01T12:40:48;0.88;;;0.30;;
30378;SDS011;17168;49.164;9.060;2023-08-01T12:43:20;1.30;;;0.47;;
30378;SDS011;17168;49.164;9.060;2023-08-01T12:45:55;0.38;;;0.20;;
30378;SDS011;17168;49.164;9.060;2023-08-01T12:48:29;0.90;;;0.20;;
30378;SDS011;17168;49.164;9.060;2023-08-01T12:51:02;1.00;;;0.50;;
30378;SDS011;17168;49.164;9.060;2023-08-01T12:53:37;2.10;;;0.30;;
30378;SDS011;17168;49.164;9.060;2023-08-01T12:56:11;0.93;;;0.30;;
30378;SDS011;17168;49.164;9.060;2023-08-01T12:58:43;1.45;;;0.47;;
30378;SDS011;17168;49.164;9.060;2023-08-01T13:01:16;3.25;;;0.82;;
30378;SDS011;17168;49.164;9.060;2023-08-01T13:03:48;0.95;;;0.20;;
30378;SDS011;17168;49.164;9.060;2023-08-01T13:06:21;1.38;;;0.43;;
30378;SDS011;17168;49.164;9.060;2023-08-01T13:08:56;0.50;;;0.08;;
30378;SDS011;17168;49.164;9.060;2023-08-01T13:11:28;1.77;;;0.57;;
30378;SDS011;17168;49.164;9.060;2023-08-01T13:14:00;0.38;;;0.25;;
30378;SDS011;17168;49.164;9.060;2023-08-01T13:16:32;1.10;;;0.20;;
30378;SDS011;17168;49.164;9.060;2023-08-01T13:19:07;1.10;;;0.28;;
30378;SDS011;17168;49.164;9.060;2023-08-01T13:21:40;0.77;;;0.38;;
30378;SDS011;17168;49.164;9.060;2023-08-01T13:24:14;1.88;;;0.60;;
30378;SDS011;17168;49.164;9.060;2023-08-01T13:26:46;1.48;;;0.28;;
30378;SDS011;17168;49.164;9.060;2023-08-01T13:29:19;1.10;;;0.30;;
30378;SDS011;17168;49.164;9.060;2023-08-01T13:31:51;1.42;;;0.30;;
30378;SDS011;17168;49.164;9.060;2023-08-01T13:34:23;1.88;;;0.38;;
30378;SDS011;17168;49.164;9.060;2023-08-01T13:36:56;1.25;;;0.43;;
30378;SDS011;17168;49.164;9.060;2023-08-01T13:39:31;1.35;;;0.40;;
30378;SDS011;17168;49.164;9.060;2023-08-01T13:42:03;1.33;;;0.10;;
30378;SDS011;17168;49.164;9.060;2023-08-01T13:44:36;0.60;;;0.32;;
30378;SDS011;17168;49.164;9.060;2023-08-01T13:47:08;1.05;;;0.40;;
30378;SDS011;17168;49.164;9.060;2023-08-01T13:49:40;1.02;;;0.45;;
30378;SDS011;17168;49.164;9.060;2023-08-01T13:52:13;0.55;;;0.40;;
30378;SDS011;17168;49.164;9.060;2023-08-01T13:54:48;0.57;;;0.13;;
30378;SDS011;17168;49.164;9.060;2023-08-01T13:57:20;2.35;;;0.65;;
30378;SDS011;17168;49.164;9.060;2023-08-01T13:59:55;0.80;;;0.20;;
30378;SDS011;17168;49.164;9.060;2023-08-01T14:02:42;0.77;;;0.10;;
30378;SDS011;17168;49.164;9.060;2023-08-01T14:05:15;1.00;;;0.10;;
30378;SDS011;17168;49.164;9.060;2023-08-01T14:07:47;1.33;;;0.52;;
30378;SDS011;17168;49.164;9.060;2023-08-01T14:10:22;0.73;;;0.38;;
30378;SDS011;17168;49.164;9.060;2023-08-01T14:12:54;2.10;;;0.20;;
30378;SDS011;17168;49.164;9.060;2023-08-01T14:15:27;0.90;;;0.55;;
30378;SDS011;17168;49.164;9.060;2023-08-01T14:17:59;0.68;;;0.22;;
30378;SDS011;17168;49.164;9.060;2023-08-01T14:20:31;1.77;;;0.52;;
30378;SDS011;17168;49.164;9.060;2023-08-01T14:23:03;1.60;;;0.45;;
30378;SDS011;17168;49.164;9.060;2023-08-01T14:25:38;1.75;;;0.45;;
30378;SDS011;17168;49.164;9.060;2023-08-01T14:28:10;0.60;;;0.30;;
30378;SDS011;17168;49.164;9.060;2023-08-01T14:30:43;1.42;;;0.40;;
30378;SDS011;17168;49.164;9.060;2023-08-01T14:33:15;1.30;;;0.20;;
30378;SDS011;17168;49.164;9.060;2023-08-01T14:35:47;1.85;;;0.40;;
30378;SDS011;17168;49.164;9.060;2023-08-01T14:38:19;1.42;;;0.43;;
30378;SDS011;17168;49.164;9.060;2023-08-01T14:40:54;2.75;;;0.40;;
30378;SDS011;17168;49.164;9.060;2023-08-01T14:43:46;0.63;;;0.20;;
30378;SDS011;17168;49.164;9.060;2023-08-01T14:46:18;1.42;;;0.57;;
30378;SDS011;17168;49.164;9.060;2023-08-01T14:48:51;0.70;;;0.30;;
30378;SDS011;17168;49.164;9.060;2023-08-01T14:51:23;0.70;;;0.32;;
30378;SDS011;17168;49.164;9.060;2023-08-01T14:53:55;0.50;;;0.22;;
30378;SDS011;17168;49.164;9.060;2023-08-01T14:56:30;2.42;;;0.80;;
30378;SDS011;17168;49.164;9.060;2023-08-01T14:59:02;0.85;;;0.35;;
30378;SDS011;17168;49.164;9.060;2023-08-01T15:01:35;1.50;;;0.57;;
30378;SDS011;17168;49.164;9.060;2023-08-01T15:04:07;1.23;;;0.43;;
30378;SDS011;17168;49.164;9.060;2023-08-01T15:06:39;1.20;;;0.32;;
30378;SDS011;17168;49.164;9.060;2023-08-01T15:09:12;0.60;;;0.30;;
30378;SDS011;17168;49.164;9.060;2023-08-01T15:11:47;2.15;;;0.63;;
30378;SDS011;17168;49.164;9.060;2023-08-01T15:14:19;1.35;;;0.20;;
30378;SDS011;17168;49.164;9.060;2023-08-01T15:16:51;2.85;;;0.88;;
30378;SDS011;17168;49.164;9.060;2023-08-01T15:19:23;2.28;;;0.40;;
30378;SDS011;17168;49.164;9.060;2023-08-01T15:21:55;3.08;;;0.75;;
30378;SDS011;17168;49.164;9.060;2023-08-01T15:24:29;0.70;;;0.32;;
30378;SDS011;17168;49.164;9.060;2023-08-01T15:27:04;1.58;;;0.63;;